Time;durP1;ratioP1;P1;durP2;ratioP2;P2;SDS_P1;SDS_P2;PMS_P1;PMS_P2;Temp;Humidity;BMP_temperature;BMP_pressure;BME280_temperature;BME280_humidity;BME280_pressure;Samples;Min_cycle;Max_cycle;Signal;HPM_P1;HPM_P2
2021/05/18 00:01:26;;;;;;;16.33;7.90;;;14.30;74.00;;;;;;5058582;28;20433;-70
2021/05/18 00:03:52;;;;;;;15.32;8.20;;;14.20;74.00;;;;;;5050754;28;20065;-70
2021/05/18 00:06:18;;;;;;;15.45;8.20;;;14.20;74.10;;;;;;5053209;28;20037;-70
2021/05/18 00:11:45;;;;;;;17.13;8.60;;;14.10;74.10;;;;;;5059228;28;20067;-71
2021/05/18 00:14:17;;;;;;;14.90;7.75;;;14.10;74.20;;;;;;5053714;28;20101;-70
2021/05/18 00:16:43;;;;;;;15.43;8.30;;;14.00;74.20;;;;;;5066693;28;20440;-70
2021/05/18 00:19:09;;;;;;;13.80;7.20;;;14.10;74.20;;;;;;5064328;28;20062;-70
2021/05/18 00:21:35;;;;;;;15.73;7.40;;;14.00;74.20;;;;;;5058692;28;20108;-70
2021/05/18 00:24:01;;;;;;;14.60;8.27;;;14.00;74.20;;;;;;5063338;28;20025;-70
2021/05/18 00:26:27;;;;;;;17.02;8.68;;;14.00;74.30;;;;;;5064745;28;20110;-70
2021/05/18 00:28:53;;;;;;;15.68;8.02;;;14.00;74.40;;;;;;5043415;28;20033;-70
2021/05/18 00:31:18;;;;;;;29.95;10.02;;;13.90;74.40;;;;;;5064533;28;20952;-70
2021/05/18 00:33:44;;;;;;;18.67;8.35;;;13.90;74.40;;;;;;5066265;28;20083;-70
2021/05/18 00:36:10;;;;;;;20.63;9.95;;;13.90;74.60;;;;;;5054859;28;20067;-72
2021/05/18 00:38:37;;;;;;;15.27;8.10;;;13.80;74.50;;;;;;5062903;28;20317;-72
2021/05/18 00:41:03;;;;;;;14.18;7.20;;;13.80;74.50;;;;;;5065947;28;20027;-72
2021/05/18 00:43:28;;;;;;;12.23;6.82;;;13.80;74.60;;;;;;5061443;28;20035;-72
2021/05/18 00:45:54;;;;;;;20.67;8.63;;;13.80;74.60;;;;;;5065131;28;20028;-72
2021/05/18 00:48:22;;;;;;;14.70;7.57;;;13.80;74.70;;;;;;5062052;28;20341;-72
2021/05/18 00:50:54;;;;;;;19.55;8.07;;;13.70;74.70;;;;;;5054440;28;20033;-72
2021/05/18 00:53:21;;;;;;;15.82;7.97;;;13.70;74.70;;;;;;5060850;28;20129;-72
2021/05/18 00:58:30;;;;;;;16.10;8.07;;;13.80;74.70;;;;;;5052022;28;20060;-72
2021/05/18 01:01:04;;;;;;;15.57;8.15;;;13.80;74.90;;;;;;5060550;28;20020;-72
2021/05/18 01:03:32;;;;;;;15.00;8.25;;;13.80;75.00;;;;;;5052062;28;20045;-72
2021/05/18 01:08:43;;;;;;;18.08;7.65;;;13.80;75.20;;;;;;5054753;28;20040;-72
2021/05/18 01:11:09;;;;;;;15.98;8.63;;;13.80;75.20;;;;;;5055048;28;20039;-72
2021/05/18 01:13:36;;;;;;;14.75;9.02;;;13.80;75.40;;;;;;5061121;28;20041;-72
2021/05/18 01:16:06;;;;;;;14.68;8.55;;;13.80;75.50;;;;;;5050323;28;20147;-73
2021/05/18 01:18:47;;;;;;;15.07;8.20;;;13.80;75.50;;;;;;5050864;28;20051;-71
2021/05/18 01:21:14;;;;;;;15.93;7.93;;;13.80;75.60;;;;;;5046165;28;20025;-70
2021/05/18 01:23:40;;;;;;;16.55;9.48;;;13.90;75.60;;;;;;5058018;28;20040;-70
2021/05/18 01:26:07;;;;;;;19.20;9.98;;;13.80;75.70;;;;;;5058081;28;20064;-70
2021/05/18 01:28:33;;;;;;;17.60;9.70;;;13.80;75.90;;;;;;5055084;28;20260;-70
2021/05/18 01:31:00;;;;;;;16.63;8.30;;;13.80;76.10;;;;;;5063353;28;20033;-69
2021/05/18 01:33:26;;;;;;;15.68;8.20;;;13.80;76.20;;;;;;5058055;28;20112;-70
2021/05/18 01:35:54;;;;;;;16.13;8.52;;;13.90;76.20;;;;;;5055870;28;20159;-70
2021/05/18 01:38:23;;;;;;;15.88;8.73;;;13.90;76.20;;;;;;5062901;28;20028;-70
2021/05/18 01:43:34;;;;;;;20.15;9.57;;;13.90;76.10;;;;;;5060243;28;20060;-72
2021/05/18 01:46:00;;;;;;;15.15;9.10;;;14.00;76.10;;;;;;5055316;28;20076;-70
2021/05/18 01:48:26;;;;;;;16.35;8.52;;;14.00;76.20;;;;;;5063457;28;20122;-69
2021/05/18 01:50:52;;;;;;;20.52;10.30;;;14.00;76.10;;;;;;5051876;28;20056;-69
2021/05/18 01:53:19;;;;;;;17.23;9.00;;;14.10;76.10;;;;;;5050358;28;20059;-70
2021/05/18 01:56:02;;;;;;;13.93;8.50;;;14.10;76.00;;;;;;5063632;28;20379;-70
2021/05/18 01:58:28;;;;;;;15.25;7.60;;;14.10;76.00;;;;;;5059550;28;20025;-70
2021/05/18 02:00:54;;;;;;;15.20;9.13;;;14.10;76.00;;;;;;5043203;28;20033;-70
2021/05/18 02:03:19;;;;;;;16.92;9.82;;;14.10;75.90;;;;;;5061917;28;20539;-71
2021/05/18 02:05:45;;;;;;;17.27;9.45;;;14.20;76.00;;;;;;5064165;28;20155;-70
2021/05/18 02:08:14;;;;;;;16.38;9.00;;;14.20;76.00;;;;;;5067344;28;20391;-70
2021/05/18 02:10:40;;;;;;;19.20;9.40;;;14.20;76.00;;;;;;5061668;28;20028;-70
2021/05/18 02:13:06;;;;;;;15.38;9.32;;;14.20;76.10;;;;;;5048829;28;20179;-70
2021/05/18 02:18:35;;;;;;;17.25;9.75;;;14.20;76.10;;;;;;5050472;28;20029;-70
2021/05/18 02:21:38;;;;;;;18.88;8.10;;;14.20;76.20;;;;;;5052344;28;20021;-69
2021/05/18 02:26:49;;;;;;;21.30;11.13;;;14.20;76.30;;;;;;5060561;28;20086;-69
2021/05/18 02:29:15;;;;;;;19.02;10.38;;;14.10;76.40;;;;;;5065504;28;20052;-70
2021/05/18 02:31:40;;;;;;;18.45;10.60;;;14.00;76.60;;;;;;5058648;28;20397;-69
2021/05/18 02:34:06;;;;;;;16.90;9.30;;;14.10;76.70;;;;;;5062976;28;20024;-70
2021/05/18 02:36:32;;;;;;;16.02;10.23;;;14.10;76.70;;;;;;5064266;28;20112;-69
2021/05/18 02:38:57;;;;;;;19.25;11.05;;;14.10;76.70;;;;;;5054990;28;20512;-69
2021/05/18 02:41:23;;;;;;;15.07;9.60;;;14.10;76.70;;;;;;5060653;28;20108;-70
2021/05/18 02:43:56;;;;;;;17.38;10.40;;;14.10;76.70;;;;;;5047557;28;20080;-71
2021/05/18 02:51:50;;;;;;;17.08;9.50;;;14.20;76.70;;;;;;5044366;28;20044;-70
2021/05/18 02:54:22;;;;;;;18.67;10.43;;;14.30;76.70;;;;;;5050733;28;20071;-69
2021/05/18 02:56:51;;;;;;;15.07;8.82;;;14.20;76.70;;;;;;5055161;28;20035;-70
2021/05/18 02:59:19;;;;;;;18.80;9.95;;;14.30;76.80;;;;;;5058313;28;20033;-70
2021/05/18 03:01:50;;;;;;;18.75;9.35;;;14.30;76.90;;;;;;5054785;28;20388;-70
2021/05/18 03:04:16;;;;;;;19.45;10.30;;;14.30;77.00;;;;;;5060307;28;20081;-70
2021/05/18 03:06:42;;;;;;;21.15;10.57;;;14.30;77.00;;;;;;5048695;28;20363;-70
2021/05/18 03:09:12;;;;;;;16.58;9.20;;;14.20;77.00;;;;;;5055074;28;20044;-70
2021/05/18 03:11:40;;;;;;;17.70;9.18;;;14.30;77.10;;;;;;5054773;28;20039;-70
2021/05/18 03:14:07;;;;;;;15.55;10.85;;;14.30;77.10;;;;;;5058092;28;20044;-70
2021/05/18 03:16:35;;;;;;;15.35;9.15;;;14.30;77.10;;;;;;5054931;28;20049;-70
2021/05/18 03:19:01;;;;;;;17.75;10.15;;;14.30;77.10;;;;;;5094744;28;20116;-70
2021/05/18 03:21:27;;;;;;;17.35;10.23;;;14.40;77.10;;;;;;5048645;28;20037;-70
2021/05/18 03:23:53;;;;;;;19.42;10.93;;;14.40;77.10;;;;;;5051242;28;20513;-70
2021/05/18 03:26:19;;;;;;;16.73;10.02;;;14.30;77.10;;;;;;5062775;28;20061;-70
2021/05/18 03:28:47;;;;;;;18.40;9.52;;;14.40;77.10;;;;;;5051778;28;20036;-70
2021/05/18 03:36:41;;;;;;;20.02;10.57;;;14.30;77.30;;;;;;5053777;28;20102;-70
2021/05/18 03:39:07;;;;;;;17.80;10.55;;;14.40;77.50;;;;;;5056953;28;20084;-70
2021/05/18 03:41:44;;;;;;;16.02;9.65;;;14.30;77.60;;;;;;5053986;28;20040;-70
2021/05/18 03:44:23;;;;;;;18.33;9.73;;;14.40;77.60;;;;;;5064025;28;20040;-71
2021/05/18 04:02:58;;;;;;;21.92;12.57;;;14.60;77.70;;;;;;5056262;28;20067;-70
2021/05/18 04:11:00;;;;;;;19.77;13.60;;;14.70;77.90;;;;;;5056242;28;20370;-70
2021/05/18 05:07:12;;;;;;;25.33;17.38;;;15.10;78.10;;;;;;5052415;28;20040;-72
2021/05/18 05:09:32;;;;;;;25.05;15.23;;;15.10;78.30;;;;;;5048454;28;20045;-71
2021/05/18 05:14:43;;;;;;;27.63;19.25;;;15.20;78.70;;;;;;5052311;28;20560;-71
2021/05/18 05:17:08;;;;;;;23.55;17.95;;;15.20;78.70;;;;;;5071905;28;20028;-72
2021/05/18 05:19:35;;;;;;;22.55;16.98;;;15.10;78.70;;;;;;5061625;28;20028;-71
2021/05/18 05:22:02;;;;;;;31.25;19.20;;;15.20;78.90;;;;;;5070196;28;20383;-71
2021/05/18 05:24:28;;;;;;;25.67;18.58;;;15.20;79.00;;;;;;5055663;28;20120;-71
2021/05/18 05:26:55;;;;;;;27.35;17.85;;;15.20;79.00;;;;;;5062662;28;20076;-71
2021/05/18 05:29:21;;;;;;;22.90;17.67;;;15.30;79.10;;;;;;5055059;28;20440;-71
2021/05/18 05:31:48;;;;;;;23.85;18.17;;;15.20;79.10;;;;;;5056565;28;20032;-71
2021/05/18 05:34:16;;;;;;;24.17;18.52;;;15.20;79.20;;;;;;5068171;28;20032;-71
2021/05/18 05:36:42;;;;;;;21.45;15.98;;;15.20;79.30;;;;;;5064121;28;20055;-72
2021/05/18 05:39:13;;;;;;;23.73;16.00;;;15.20;79.20;;;;;;5055105;28;20060;-72
2021/05/18 05:41:39;;;;;;;22.40;16.55;;;15.10;79.20;;;;;;5060812;28;20032;-73
2021/05/18 05:44:05;;;;;;;23.00;16.60;;;15.20;79.20;;;;;;5053948;28;20028;-72
2021/05/18 05:46:32;;;;;;;22.00;16.50;;;15.20;79.20;;;;;;5059188;28;20130;-72
2021/05/18 05:48:58;;;;;;;21.95;15.88;;;15.20;79.30;;;;;;5051158;28;20501;-72
2021/05/18 05:51:26;;;;;;;22.67;17.77;;;15.20;79.30;;;;;;5050914;28;20056;-72
2021/05/18 05:53:54;;;;;;;23.25;17.65;;;15.20;79.30;;;;;;5052280;28;20380;-72
2021/05/18 05:56:20;;;;;;;22.48;17.50;;;15.30;79.50;;;;;;5088274;28;20116;-72
2021/05/18 05:58:47;;;;;;;25.92;18.80;;;15.30;79.40;;;;;;5060202;28;20546;-72
2021/05/18 06:01:13;;;;;;;25.95;20.13;;;15.40;79.50;;;;;;5051084;28;20717;-72
2021/05/18 06:03:40;;;;;;;27.13;21.20;;;15.50;79.40;;;;;;5068519;28;20033;-72
2021/05/18 06:06:06;;;;;;;25.23;20.48;;;15.50;79.40;;;;;;5067389;28;20453;-72
2021/05/18 06:08:37;;;;;;;32.25;23.98;;;15.50;79.40;;;;;;5066824;28;20398;-72
2021/05/18 06:11:08;;;;;;;29.00;22.90;;;15.50;79.40;;;;;;5045936;28;20463;-71
2021/05/18 06:17:25;;;;;;;30.42;22.83;;;15.70;79.60;;;;;;5057681;28;20041;-71
2021/05/18 06:35:49;;;;;;;34.17;24.17;;;15.80;79.60;;;;;;5061679;28;20052;-71
2021/05/18 06:47:29;;;;;;;32.00;24.23;;;15.90;79.40;;;;;;5061533;28;20367;-70
2021/05/18 06:49:36;;;;;;;27.90;22.08;;;15.90;79.20;;;;;;5062553;28;20467;-70
2021/05/18 06:52:02;;;;;;;28.73;22.42;;;15.90;79.20;;;;;;5069372;28;20044;-70
2021/05/18 06:54:27;;;;;;;28.17;21.95;;;16.00;79.30;;;;;;5064012;28;20043;-70
2021/05/18 06:56:56;;;;;;;26.58;22.00;;;16.00;79.30;;;;;;5050141;28;20033;-70
2021/05/18 07:01:47;;;;;;;28.33;21.52;;;16.20;79.20;;;;;;5057487;28;20063;-71
2021/05/18 07:04:14;;;;;;;30.48;22.17;;;16.40;78.80;;;;;;5065397;28;20055;-71
2021/05/18 07:09:08;;;;;;;27.75;19.63;;;16.70;78.10;;;;;;5048329;28;20427;-71
2021/05/18 07:11:34;;;;;;;25.85;20.10;;;16.80;77.70;;;;;;5060097;28;20100;-71
2021/05/18 07:14:00;;;;;;;24.00;19.40;;;16.80;77.20;;;;;;5049139;28;20037;-71
2021/05/18 07:16:26;;;;;;;24.73;18.58;;;16.90;77.10;;;;;;5065460;28;20380;-71
2021/05/18 07:18:51;;;;;;;23.10;17.58;;;17.00;77.00;;;;;;5053979;28;20031;-71
2021/05/18 07:21:19;;;;;;;26.67;19.38;;;17.10;77.00;;;;;;5051032;28;20139;-71
2021/05/18 07:23:45;;;;;;;22.15;16.95;;;17.30;76.40;;;;;;5065552;28;20497;-71
2021/05/18 07:26:10;;;;;;;24.73;18.80;;;17.40;76.10;;;;;;5063731;28;20036;-71
2021/05/18 07:28:36;;;;;;;23.90;18.30;;;17.50;75.90;;;;;;5051302;28;20235;-72
2021/05/18 07:31:04;;;;;;;23.98;17.88;;;17.50;75.60;;;;;;5057082;28;20038;-72
2021/05/18 07:33:30;;;;;;;20.55;16.25;;;17.50;75.30;;;;;;5066037;28;20425;-73
2021/05/18 07:36:07;;;;;;;21.48;16.27;;;17.30;75.40;;;;;;5067676;28;20024;-73
2021/05/18 07:38:34;;;;;;;15.70;13.10;;;17.10;75.60;;;;;;5052656;28;20055;-72
2021/05/18 07:41:00;;;;;;;19.27;14.15;;;17.00;75.90;;;;;;5053589;28;20464;-72
2021/05/18 07:43:25;;;;;;;17.35;13.63;;;16.90;76.10;;;;;;5050175;28;20041;-72
2021/05/18 07:45:56;;;;;;;17.55;13.13;;;16.90;76.20;;;;;;5053449;28;20394;-72
2021/05/18 07:50:59;;;;;;;10.88;8.25;;;16.70;76.10;;;;;;5067733;28;20039;-72
2021/05/18 08:07:03;;;;;;;10.30;7.00;;;16.40;76.20;;;;;;5049754;28;20050;-72
2021/05/18 08:09:29;;;;;;;12.02;8.00;;;16.50;76.30;;;;;;5062724;28;20048;-71
2021/05/18 08:11:55;;;;;;;12.60;8.25;;;16.60;76.30;;;;;;5063291;28;20028;-71
2021/05/18 08:14:22;;;;;;;13.07;9.77;;;16.80;76.00;;;;;;5057128;28;20343;-71
2021/05/18 08:17:55;;;;;;;13.80;10.55;;;16.80;75.60;;;;;;5069233;28;20059;-72
2021/05/18 08:22:39;;;;;;;15.05;12.07;;;17.00;75.80;;;;;;5065861;28;20394;-72
2021/05/18 10:21:50;;;;;;;4.82;2.60;;;20.10;61.40;;;;;;5066820;28;20059;-72
2021/05/18 10:35:36;;;;;;;7.10;4.38;;;20.60;60.90;;;;;;5068033;28;20076;-73
2021/05/18 10:38:06;;;;;;;8.82;5.30;;;20.70;61.30;;;;;;5092507;28;20391;-73
2021/05/18 10:40:36;;;;;;;7.63;5.20;;;20.90;60.50;;;;;;5064682;28;20109;-73
2021/05/18 10:43:11;;;;;;;9.35;5.50;;;20.90;60.10;;;;;;5066614;28;20040;-73
2021/05/18 10:45:55;;;;;;;7.72;5.90;;;20.80;60.50;;;;;;5065740;28;20424;-73
2021/05/18 10:48:24;;;;;;;9.02;5.55;;;20.80;61.70;;;;;;5067071;28;20039;-73
2021/05/18 10:50:50;;;;;;;9.82;5.53;;;20.80;61.40;;;;;;5059714;28;20029;-73
2021/05/18 10:53:23;;;;;;;10.25;6.25;;;20.90;62.40;;;;;;5064850;28;20494;-74
2021/05/18 10:56:06;;;;;;;10.15;5.88;;;21.10;62.50;;;;;;5067510;28;20044;-73
2021/05/18 10:58:32;;;;;;;9.88;6.85;;;21.30;61.00;;;;;;5067328;28;20028;-73
2021/05/18 11:01:01;;;;;;;8.52;5.60;;;21.60;60.00;;;;;;5063481;28;20032;-73
2021/05/18 11:03:27;;;;;;;7.43;5.28;;;21.60;58.30;;;;;;5066953;28;20028;-73
2021/05/18 11:05:53;;;;;;;8.10;5.40;;;21.60;57.50;;;;;;5056250;28;20072;-73
2021/05/18 11:08:19;;;;;;;8.02;4.93;;;21.80;57.30;;;;;;5057168;28;20373;-73
2021/05/18 11:10:46;;;;;;;7.88;5.22;;;22.60;55.40;;;;;;5067120;28;20037;-74
2021/05/18 11:13:12;;;;;;;8.00;4.38;;;22.60;56.50;;;;;;5064923;28;20469;-74
2021/05/18 11:15:37;;;;;;;7.93;5.00;;;22.90;54.90;;;;;;5061958;28;20132;-73
2021/05/18 11:18:03;;;;;;;6.88;4.57;;;22.90;53.30;;;;;;5060611;28;20124;-72
2021/05/18 11:23:27;;;;;;;5.88;3.55;;;22.80;55.20;;;;;;5062648;28;20037;-73
2021/05/18 11:25:56;;;;;;;6.82;4.07;;;22.90;54.70;;;;;;5057627;28;20451;-73
2021/05/18 11:28:43;;;;;;;6.88;4.00;;;23.10;54.30;;;;;;5061210;28;20032;-72
2021/05/18 11:31:26;;;;;;;6.40;3.95;;;23.30;53.90;;;;;;5054753;28;20471;-73
2021/05/18 11:34:02;;;;;;;7.28;3.67;;;23.30;52.40;;;;;;5067480;28;20245;-73
2021/05/18 11:36:38;;;;;;;6.25;3.35;;;23.30;52.30;;;;;;5068134;28;20494;-73
2021/05/18 11:39:08;;;;;;;7.20;2.97;;;23.50;52.30;;;;;;5067113;28;20036;-72
2021/05/18 11:41:40;;;;;;;5.13;2.80;;;23.70;51.20;;;;;;5060615;28;20029;-73
2021/05/18 11:44:09;;;;;;;6.70;2.97;;;24.00;51.90;;;;;;5062093;28;20359;-72
2021/05/18 11:46:45;;;;;;;5.63;3.13;;;24.60;48.80;;;;;;5061951;28;20025;-73
2021/05/18 11:49:13;;;;;;;5.57;2.65;;;24.50;48.60;;;;;;5067833;28;20382;-73
2021/05/18 11:51:44;;;;;;;6.45;2.70;;;24.80;47.20;;;;;;5061876;28;20036;-73
2021/05/18 11:54:11;;;;;;;4.18;2.42;;;25.00;48.70;;;;;;5068385;28;20043;-73
2021/05/18 11:56:38;;;;;;;6.03;2.72;;;25.20;48.10;;;;;;5069468;28;20104;-73
2021/05/18 11:59:12;;;;;;;6.70;2.92;;;25.10;48.20;;;;;;5092718;28;20044;-73
2021/05/18 12:02:00;;;;;;;6.03;3.38;;;25.00;46.30;;;;;;5070847;28;20117;-72
2021/05/18 12:04:28;;;;;;;6.53;2.90;;;24.70;47.30;;;;;;5071285;28;20040;-72
2021/05/18 12:06:58;;;;;;;6.68;3.75;;;24.40;46.40;;;;;;5068593;28;20152;-72
2021/05/18 12:09:26;;;;;;;5.95;3.33;;;23.70;46.10;;;;;;5070125;28;20048;-71
2021/05/18 12:12:18;;;;;;;5.75;2.90;;;22.80;48.20;;;;;;5071859;28;20036;-72
2021/05/18 12:14:49;;;;;;;4.47;2.05;;;21.90;51.90;;;;;;5055260;28;20069;-72
2021/05/18 12:17:29;;;;;;;5.32;2.22;;;21.50;53.80;;;;;;5061725;28;20471;-72
2021/05/18 12:19:55;;;;;;;4.57;1.95;;;20.90;55.10;;;;;;5063888;28;20138;-71
2021/05/18 12:22:20;;;;;;;3.60;1.73;;;20.70;55.20;;;;;;5069789;28;20025;-71
2021/05/18 12:24:46;;;;;;;4.32;2.15;;;20.50;56.20;;;;;;5058399;28;20124;-72
2021/05/18 12:27:12;;;;;;;3.25;1.65;;;20.40;57.50;;;;;;5066665;28;20033;-71
2021/05/18 12:29:43;;;;;;;4.57;2.03;;;20.60;58.40;;;;;;5060265;28;20016;-72
2021/05/18 12:32:18;;;;;;;3.33;1.40;;;21.00;57.90;;;;;;5060859;28;20037;-71
2021/05/18 12:34:46;;;;;;;2.85;1.67;;;21.30;57.60;;;;;;5063366;28;20060;-72
2021/05/18 12:37:13;;;;;;;4.38;1.65;;;21.70;57.00;;;;;;5062681;28;20032;-72
2021/05/18 12:39:44;;;;;;;4.53;1.98;;;21.90;56.40;;;;;;5062977;28;20031;-71
2021/05/18 12:42:14;;;;;;;3.85;1.77;;;22.20;55.10;;;;;;5067315;28;20124;-71
2021/05/18 12:44:54;;;;;;;4.68;2.10;;;22.20;53.30;;;;;;5068492;28;20532;-71
2021/05/18 12:47:32;;;;;;;3.75;1.52;;;22.30;54.20;;;;;;5064101;28;20052;-70
2021/05/18 12:49:58;;;;;;;3.08;1.40;;;22.50;53.50;;;;;;5065760;28;20036;-70
2021/05/18 12:52:34;;;;;;;3.08;1.42;;;22.60;53.10;;;;;;5065958;28;20040;-70
2021/05/18 12:55:00;;;;;;;4.32;1.50;;;22.70;52.10;;;;;;5062525;28;20405;-70
2021/05/18 12:57:27;;;;;;;2.28;1.33;;;22.70;51.40;;;;;;5068348;28;20037;-70
2021/05/18 13:00:13;;;;;;;4.45;1.50;;;22.70;51.50;;;;;;5065657;28;20149;-70
2021/05/18 13:02:47;;;;;;;3.30;1.40;;;22.70;52.20;;;;;;5064849;28;20024;-70
2021/05/18 13:05:19;;;;;;;3.88;1.50;;;22.70;51.50;;;;;;5057397;28;20059;-70
2021/05/18 13:08:11;;;;;;;4.07;1.80;;;22.60;50.60;;;;;;5069707;28;20028;-70
2021/05/18 13:10:52;;;;;;;5.00;2.13;;;22.70;51.80;;;;;;5058121;28;20040;-69
2021/05/18 13:13:23;;;;;;;2.85;1.63;;;22.80;51.10;;;;;;5065330;28;20093;-69
2021/05/18 13:15:49;;;;;;;3.85;2.15;;;22.90;51.40;;;;;;5053899;28;20135;-69
2021/05/18 13:18:16;;;;;;;4.05;1.98;;;22.90;51.30;;;;;;5065044;28;20032;-70
2021/05/18 13:20:49;;;;;;;4.63;2.55;;;22.70;51.30;;;;;;5053032;28;20037;-70
2021/05/18 13:24:25;;;;;;;5.20;2.85;;;22.40;51.20;;;;;;5061334;28;20111;-70
2021/05/18 13:28:46;;;;;;;5.10;2.67;;;22.00;51.10;;;;;;5065494;28;20083;-70
2021/05/18 13:31:12;;;;;;;6.07;3.22;;;21.60;51.90;;;;;;5062643;28;20475;-70
2021/05/18 13:33:37;;;;;;;6.40;2.75;;;21.60;52.70;;;;;;5066895;28;20044;-70
2021/05/18 13:36:04;;;;;;;6.88;3.15;;;21.60;52.50;;;;;;5064846;28;20048;-70
2021/05/18 13:38:33;;;;;;;6.40;3.22;;;21.80;52.90;;;;;;5059327;28;20028;-70
2021/05/18 13:40:59;;;;;;;6.75;3.45;;;22.00;53.10;;;;;;5057846;28;20051;-70
2021/05/18 13:43:25;;;;;;;6.50;3.58;;;22.20;52.20;;;;;;5048241;28;20045;-69
2021/05/18 13:45:51;;;;;;;6.97;3.38;;;22.10;50.50;;;;;;5059926;28;20032;-71
2021/05/18 13:48:16;;;;;;;7.25;4.53;;;22.00;50.90;;;;;;5072504;28;20542;-69
2021/05/18 13:50:42;;;;;;;6.13;3.53;;;21.70;50.60;;;;;;5059415;28;20521;-70
2021/05/18 13:53:08;;;;;;;6.90;3.53;;;21.50;50.30;;;;;;5042424;28;20040;-71
2021/05/18 13:55:34;;;;;;;7.18;3.20;;;21.40;51.20;;;;;;5074182;28;20048;-70
2021/05/18 13:58:00;;;;;;;6.85;3.03;;;21.30;51.00;;;;;;5054291;28;20495;-72
2021/05/18 14:00:27;;;;;;;5.60;3.00;;;21.20;51.10;;;;;;5068158;28;20040;-72
2021/05/18 14:02:53;;;;;;;5.95;3.10;;;21.20;50.80;;;;;;5060558;28;20036;-73
2021/05/18 14:05:23;;;;;;;6.93;3.33;;;21.40;51.20;;;;;;5063590;28;20048;-71
2021/05/18 14:11:15;;;;;;;5.20;2.40;;;21.40;49.60;;;;;;5021730;28;20724;-72
2021/05/18 14:13:43;;;;;;;6.40;2.50;;;21.40;50.80;;;;;;5061760;28;20041;-71
2021/05/18 14:16:09;;;;;;;4.20;2.13;;;21.50;48.80;;;;;;5062721;28;20021;-71
2021/05/18 14:18:37;;;;;;;4.80;2.60;;;21.40;49.40;;;;;;5069033;28;20032;-71
2021/05/18 14:21:03;;;;;;;5.40;2.40;;;21.40;49.60;;;;;;5060828;28;20029;-71
2021/05/18 14:23:47;;;;;;;5.72;2.78;;;21.40;49.80;;;;;;5063466;28;20179;-71
2021/05/18 14:26:13;;;;;;;5.18;2.40;;;21.20;49.20;;;;;;5043143;28;20086;-71
2021/05/18 14:28:40;;;;;;;5.82;2.50;;;21.20;49.30;;;;;;5057827;28;20036;-71
2021/05/18 14:31:08;;;;;;;6.57;2.83;;;21.00;49.10;;;;;;5064566;28;20025;-72
2021/05/18 14:33:34;;;;;;;9.20;2.88;;;21.00;50.30;;;;;;5046587;28;20366;-71
2021/05/18 14:36:00;;;;;;;5.00;2.40;;;21.00;50.10;;;;;;5062256;28;20036;-71
2021/05/18 14:38:28;;;;;;;5.20;2.75;;;21.00;50.50;;;;;;5062612;28;20398;-71
2021/05/18 14:43:56;;;;;;;4.93;2.00;;;21.10;49.30;;;;;;5064848;28;20051;-71
2021/05/18 14:57:05;;;;;;;3.42;1.75;;;20.90;47.40;;;;;;5061780;28;20855;-71
2021/05/18 14:59:30;;;;;;;5.50;1.92;;;20.90;47.20;;;;;;5063727;28;20106;-70
2021/05/18 15:01:56;;;;;;;2.67;1.60;;;20.90;46.80;;;;;;5063077;28;20035;-71
2021/05/18 15:04:22;;;;;;;2.80;1.73;;;20.90;47.50;;;;;;5065861;28;20032;-71
2021/05/18 15:06:47;;;;;;;4.30;1.50;;;21.00;47.80;;;;;;5089060;28;20421;-71
2021/05/18 15:09:13;;;;;;;3.72;1.90;;;21.00;46.00;;;;;;5061868;28;20432;-71
2021/05/18 15:11:39;;;;;;;2.88;1.70;;;20.90;45.60;;;;;;5058033;28;20028;-71
2021/05/18 15:14:06;;;;;;;3.97;1.60;;;20.80;46.40;;;;;;5062661;28;20469;-71
2021/05/18 15:16:31;;;;;;;3.20;1.80;;;20.90;46.80;;;;;;5064095;28;20041;-70
2021/05/18 15:19:03;;;;;;;4.40;1.80;;;21.00;46.50;;;;;;5069229;28;20490;-71
2021/05/18 15:21:29;;;;;;;4.30;1.67;;;21.00;46.20;;;;;;5062592;28;20063;-71
2021/05/18 15:23:54;;;;;;;3.53;1.67;;;21.00;46.30;;;;;;5062889;28;20044;-71
2021/05/18 15:26:20;;;;;;;2.15;1.35;;;20.90;46.50;;;;;;5054879;28;20036;-71
2021/05/18 15:28:46;;;;;;;3.38;1.60;;;20.90;46.60;;;;;;5066977;28;20037;-71
2021/05/18 15:31:11;;;;;;;5.15;1.80;;;20.90;47.10;;;;;;5061312;28;20136;-71
2021/05/18 15:33:37;;;;;;;4.65;1.60;;;20.80;47.00;;;;;;5068335;28;20509;-71
2021/05/18 15:36:04;;;;;;;5.63;1.95;;;20.70;47.50;;;;;;5068893;28;20407;-71
2021/05/18 15:38:37;;;;;;;3.92;1.73;;;20.70;48.00;;;;;;5072140;28;20128;-71
2021/05/18 15:41:03;;;;;;;2.75;1.65;;;20.60;47.30;;;;;;5063666;28;20037;-71
2021/05/18 15:43:29;;;;;;;3.83;1.77;;;20.30;47.40;;;;;;5070316;28;20167;-71
2021/05/18 15:45:55;;;;;;;4.22;1.42;;;20.20;48.10;;;;;;5066267;28;20033;-71
2021/05/18 15:48:21;;;;;;;2.20;1.40;;;20.20;48.90;;;;;;5062356;28;20036;-71
2021/05/18 15:50:47;;;;;;;5.90;2.13;;;20.40;48.70;;;;;;5043441;28;20029;-71
2021/05/18 15:53:12;;;;;;;2.60;1.35;;;20.50;49.50;;;;;;5051713;28;20037;-71
2021/05/18 15:55:38;;;;;;;2.45;1.33;;;20.70;48.50;;;;;;5059160;28;20430;-71
2021/05/18 15:58:04;;;;;;;3.45;1.50;;;20.80;49.10;;;;;;5056765;28;20037;-70
2021/05/18 16:00:29;;;;;;;3.33;1.60;;;20.90;48.50;;;;;;5065741;28;20062;-70
2021/05/18 16:02:55;;;;;;;4.13;1.45;;;20.90;46.60;;;;;;5056301;28;20060;-71
2021/05/18 16:05:21;;;;;;;3.45;1.60;;;20.80;46.70;;;;;;5056347;28;20044;-71
2021/05/18 16:07:53;;;;;;;2.63;1.35;;;20.70;46.30;;;;;;5052073;28;20132;-71
2021/05/18 16:10:19;;;;;;;2.20;1.17;;;20.60;46.90;;;;;;5066053;28;20036;-71
2021/05/18 16:12:45;;;;;;;2.75;1.50;;;20.70;47.80;;;;;;5071709;28;20031;-71
2021/05/18 16:15:11;;;;;;;5.90;1.65;;;20.70;47.80;;;;;;5067559;28;20089;-71
2021/05/18 16:17:37;;;;;;;3.08;1.50;;;20.70;47.20;;;;;;5070466;28;20029;-71
2021/05/18 16:20:03;;;;;;;3.97;1.48;;;20.60;47.70;;;;;;5063256;28;20103;-71
2021/05/18 16:22:29;;;;;;;4.22;1.98;;;20.50;47.80;;;;;;5052976;28;20112;-72
2021/05/18 16:24:55;;;;;;;4.68;1.75;;;20.50;47.50;;;;;;5056010;28;20479;-72
2021/05/18 16:27:20;;;;;;;2.58;1.35;;;20.50;47.10;;;;;;5060109;28;20037;-71
2021/05/18 16:29:46;;;;;;;4.43;1.80;;;20.40;47.20;;;;;;5057523;28;20433;-71
2021/05/18 16:32:12;;;;;;;3.85;1.38;;;20.40;47.70;;;;;;5052810;28;20465;-71
2021/05/18 16:34:38;;;;;;;3.53;1.63;;;20.40;48.00;;;;;;5059186;28;20061;-71
2021/05/18 16:37:04;;;;;;;3.58;1.50;;;20.20;47.60;;;;;;5052436;28;20083;-71
2021/05/18 16:39:29;;;;;;;3.42;1.50;;;20.00;48.10;;;;;;5083205;28;20032;-71
2021/05/18 16:41:55;;;;;;;2.70;1.15;;;19.80;48.10;;;;;;5052269;28;20033;-71
2021/05/18 16:44:22;;;;;;;4.88;1.38;;;19.70;48.40;;;;;;5093539;28;20036;-71
2021/05/18 16:46:48;;;;;;;4.05;1.70;;;19.70;48.50;;;;;;5051185;28;20021;-71
2021/05/18 16:49:15;;;;;;;3.13;1.40;;;19.60;49.20;;;;;;5056807;28;20028;-71
2021/05/18 16:51:41;;;;;;;4.85;1.50;;;19.70;49.60;;;;;;5071066;28;20086;-71
2021/05/18 16:54:08;;;;;;;3.78;1.50;;;19.70;49.40;;;;;;5056981;28;20040;-71
2021/05/18 16:56:35;;;;;;;6.40;2.00;;;19.70;49.20;;;;;;5064336;28;20016;-71
2021/05/18 16:59:01;;;;;;;3.55;1.52;;;19.70;49.30;;;;;;5059643;28;20108;-71
2021/05/18 17:01:27;;;;;;;4.63;1.75;;;19.70;49.00;;;;;;5051746;28;20108;-71
2021/05/18 17:03:52;;;;;;;4.03;1.40;;;19.70;49.20;;;;;;5059767;28;20049;-71
2021/05/18 17:06:18;;;;;;;4.90;2.00;;;19.80;49.30;;;;;;5068980;28;20056;-71
2021/05/18 17:08:44;;;;;;;3.45;1.60;;;19.70;49.00;;;;;;5050684;28;20036;-71
2021/05/18 17:11:10;;;;;;;3.08;1.65;;;19.60;49.70;;;;;;5053668;28;20033;-71
2021/05/18 17:13:36;;;;;;;2.90;1.35;;;19.60;50.30;;;;;;5058048;28;20120;-71
2021/05/18 17:16:04;;;;;;;4.80;1.70;;;19.70;50.30;;;;;;5051940;28;20099;-71
2021/05/18 17:18:30;;;;;;;4.55;1.80;;;19.60;48.40;;;;;;5086432;28;20024;-71
2021/05/18 17:20:56;;;;;;;4.53;1.63;;;19.60;48.60;;;;;;5063068;28;20039;-72
2021/05/18 17:23:22;;;;;;;3.20;1.45;;;19.50;49.40;;;;;;5061453;28;20021;-71
2021/05/18 17:25:48;;;;;;;3.22;1.70;;;19.40;49.00;;;;;;5055585;28;20459;-71
2021/05/18 17:28:14;;;;;;;4.07;1.40;;;19.20;49.50;;;;;;5057072;28;20120;-72
2021/05/18 17:30:40;;;;;;;4.18;1.88;;;19.10;49.90;;;;;;5068731;28;20485;-71
2021/05/18 17:33:06;;;;;;;3.78;1.65;;;19.10;50.40;;;;;;5054071;28;20028;-72
2021/05/18 17:35:32;;;;;;;3.55;1.63;;;19.10;50.90;;;;;;5050745;28;20029;-72
2021/05/18 17:37:58;;;;;;;5.82;1.90;;;19.10;51.10;;;;;;5056805;28;20090;-71
2021/05/18 17:40:24;;;;;;;3.45;1.70;;;19.10;51.20;;;;;;5062827;28;20029;-71
2021/05/18 17:42:50;;;;;;;4.10;1.52;;;19.20;51.60;;;;;;5051383;28;20116;-72
2021/05/18 17:45:16;;;;;;;3.28;1.92;;;19.20;52.10;;;;;;5059070;28;20045;-71
2021/05/18 17:47:43;;;;;;;5.22;1.83;;;19.20;52.10;;;;;;5069487;28;20047;-71
2021/05/18 17:50:11;;;;;;;7.20;2.25;;;19.20;52.20;;;;;;5056420;28;20427;-71
2021/05/18 17:52:37;;;;;;;6.15;2.10;;;19.10;52.30;;;;;;5066650;28;20067;-71
2021/05/18 17:55:08;;;;;;;4.05;1.98;;;19.00;52.30;;;;;;5062536;28;20072;-71